Terminal Aerodrome Forecast
Issued by NWS

Home | Current Version | Previous Version | Text Only | Print | Product List | Glossary On
Versions: 1 2 3 4 5 6 7 8 9 10 11 12 13 14 15 16 17 18 19
076
FTUS46 KPDT 220520
TAFPSC
TAF
KPSC 220520Z 2206/2306 20006KT P6SM FEW060 SCT100
     FM221700 24010KT P6SM BKN080
     FM222200 22012KT P6SM SCT080
     FM230100 21006KT P6SM FEW080=

USA.gov is the U.S. government's official web portal to all federal, state and local government web resources and services.